sensor_id;sensor_type;location;lat;lon;timestamp;temperature;humidity
19220;DHT22;9744;49.364;7.484;2023-04-28T00:01:22;14.40;99.90
19220;DHT22;9744;49.364;7.484;2023-04-28T00:03:49;14.40;99.90
19220;DHT22;9744;49.364;7.484;2023-04-28T00:06:18;14.30;99.90
19220;DHT22;9744;49.364;7.484;2023-04-28T00:08:45;14.30;99.90
19220;DHT22;9744;49.364;7.484;2023-04-28T00:11:14;14.30;99.90
19220;DHT22;9744;49.364;7.484;2023-04-28T00:13:41;14.10;99.90
19220;DHT22;9744;49.364;7.484;2023-04-28T00:16:08;14.10;99.90
19220;DHT22;9744;49.364;7.484;2023-04-28T00:18:35;14.10;99.90
19220;DHT22;9744;49.364;7.484;2023-04-28T00:21:03;14.00;99.90
19220;DHT22;9744;49.364;7.484;2023-04-28T00:23:31;13.90;99.90
19220;DHT22;9744;49.364;7.484;2023-04-28T00:25:58;13.90;99.90
19220;DHT22;9744;49.364;7.484;2023-04-28T00:28:27;13.80;99.90
19220;DHT22;9744;49.364;7.484;2023-04-28T00:30:54;13.90;99.90
19220;DHT22;9744;49.364;7.484;2023-04-28T00:33:22;13.80;99.90
19220;DHT22;9744;49.364;7.484;2023-04-28T00:35:49;13.90;99.90
19220;DHT22;9744;49.364;7.484;2023-04-28T00:38:24;13.90;99.90
19220;DHT22;9744;49.364;7.484;2023-04-28T00:40:52;13.90;99.90
19220;DHT22;9744;49.364;7.484;2023-04-28T00:43:19;13.90;99.90
19220;DHT22;9744;49.364;7.484;2023-04-28T00:45:48;14.00;99.90
19220;DHT22;9744;49.364;7.484;2023-04-28T00:48:15;14.00;99.90
19220;DHT22;9744;49.364;7.484;2023-04-28T00:50:43;14.00;99.90
19220;DHT22;9744;49.364;7.484;2023-04-28T00:53:11;14.00;99.90
19220;DHT22;9744;49.364;7.484;2023-04-28T00:55:39;14.10;99.90
19220;DHT22;9744;49.364;7.484;2023-04-28T00:58:06;14.00;99.90
19220;DHT22;9744;49.364;7.484;2023-04-28T01:00:34;14.00;99.90
19220;DHT22;9744;49.364;7.484;2023-04-28T01:03:04;14.00;99.90
19220;DHT22;9744;49.364;7.484;2023-04-28T01:05:34;14.00;99.90
19220;DHT22;9744;49.364;7.484;2023-04-28T01:08:02;14.10;99.90
19220;DHT22;9744;49.364;7.484;2023-04-28T01:10:30;14.00;99.90
19220;DHT22;9744;49.364;7.484;2023-04-28T01:13:03;14.00;99.90
19220;DHT22;9744;49.364;7.484;2023-04-28T01:15:31;14.00;99.90
19220;DHT22;9744;49.364;7.484;2023-04-28T01:17:58;14.00;99.90
19220;DHT22;9744;49.364;7.484;2023-04-28T01:20:28;14.00;99.90
19220;DHT22;9744;49.364;7.484;2023-04-28T01:22:56;14.00;99.90
19220;DHT22;9744;49.364;7.484;2023-04-28T01:25:24;14.00;99.90
19220;DHT22;9744;49.364;7.484;2023-04-28T01:27:52;14.00;99.90
19220;DHT22;9744;49.364;7.484;2023-04-28T01:30:19;13.90;99.90
19220;DHT22;9744;49.364;7.484;2023-04-28T01:32:47;13.90;99.90
19220;DHT22;9744;49.364;7.484;2023-04-28T01:35:14;13.70;99.90
19220;DHT22;9744;49.364;7.484;2023-04-28T01:37:41;13.50;99.90
19220;DHT22;9744;49.364;7.484;2023-04-28T01:40:09;13.40;99.90
19220;DHT22;9744;49.364;7.484;2023-04-28T01:42:38;13.30;99.90
19220;DHT22;9744;49.364;7.484;2023-04-28T01:45:06;13.20;99.90
19220;DHT22;9744;49.364;7.484;2023-04-28T01:47:35;12.90;99.90
19220;DHT22;9744;49.364;7.484;2023-04-28T01:50:03;12.60;99.90
19220;DHT22;9744;49.364;7.484;2023-04-28T01:52:31;12.60;99.90
19220;DHT22;9744;49.364;7.484;2023-04-28T01:54:58;12.50;99.90
19220;DHT22;9744;49.364;7.484;2023-04-28T01:57:25;12.30;99.90
19220;DHT22;9744;49.364;7.484;2023-04-28T01:59:57;12.10;99.90
19220;DHT22;9744;49.364;7.484;2023-04-28T02:02:26;11.90;99.90
19220;DHT22;9744;49.364;7.484;2023-04-28T02:04:53;11.70;99.90
19220;DHT22;9744;49.364;7.484;2023-04-28T02:07:23;11.50;99.90
19220;DHT22;9744;49.364;7.484;2023-04-28T02:09:50;11.40;99.90
19220;DHT22;9744;49.364;7.484;2023-04-28T02:12:18;11.40;99.90
19220;DHT22;9744;49.364;7.484;2023-04-28T02:14:46;11.30;99.90
19220;DHT22;9744;49.364;7.484;2023-04-28T02:17:15;11.20;99.90
19220;DHT22;9744;49.364;7.484;2023-04-28T02:19:42;11.10;99.90
19220;DHT22;9744;49.364;7.484;2023-04-28T02:22:12;11.00;99.90
19220;DHT22;9744;49.364;7.484;2023-04-28T02:24:39;11.00;99.90
19220;DHT22;9744;49.364;7.484;2023-04-28T02:27:07;11.00;99.90
19220;DHT22;9744;49.364;7.484;2023-04-28T02:29:34;11.00;99.90
19220;DHT22;9744;49.364;7.484;2023-04-28T02:32:01;11.00;99.90
19220;DHT22;9744;49.364;7.484;2023-04-28T02:34:33;11.00;99.90
19220;DHT22;9744;49.364;7.484;2023-04-28T02:37:01;11.00;99.90
19220;DHT22;9744;49.364;7.484;2023-04-28T02:39:28;11.00;99.90
19220;DHT22;9744;49.364;7.484;2023-04-28T02:41:56;11.00;99.90
19220;DHT22;9744;49.364;7.484;2023-04-28T02:44:24;11.00;99.90
19220;DHT22;9744;49.364;7.484;2023-04-28T02:46:51;11.00;99.90
19220;DHT22;9744;49.364;7.484;2023-04-28T02:49:18;10.90;99.90
19220;DHT22;9744;49.364;7.484;2023-04-28T02:51:47;11.00;99.90
19220;DHT22;9744;49.364;7.484;2023-04-28T02:54:15;11.10;99.90
19220;DHT22;9744;49.364;7.484;2023-04-28T02:56:51;11.10;99.90
19220;DHT22;9744;49.364;7.484;2023-04-28T02:59:20;11.20;99.90
19220;DHT22;9744;49.364;7.484;2023-04-28T03:01:48;11.20;99.90
19220;DHT22;9744;49.364;7.484;2023-04-28T03:04:16;11.20;99.90
19220;DHT22;9744;49.364;7.484;2023-04-28T03:06:43;11.20;99.90
19220;DHT22;9744;49.364;7.484;2023-04-28T03:09:13;11.20;99.90
19220;DHT22;9744;49.364;7.484;2023-04-28T03:11:40;11.10;99.90
19220;DHT22;9744;49.364;7.484;2023-04-28T03:14:08;11.10;99.90
19220;DHT22;9744;49.364;7.484;2023-04-28T03:16:37;11.10;99.90
19220;DHT22;9744;49.364;7.484;2023-04-28T03:19:04;11.20;99.90
19220;DHT22;9744;49.364;7.484;2023-04-28T03:21:31;11.20;99.90
19220;DHT22;9744;49.364;7.484;2023-04-28T03:23:59;10.90;99.90
19220;DHT22;9744;49.364;7.484;2023-04-28T03:26:27;10.80;99.90
19220;DHT22;9744;49.364;7.484;2023-04-28T03:28:54;10.70;99.90
19220;DHT22;9744;49.364;7.484;2023-04-28T03:31:22;10.60;99.90
19220;DHT22;9744;49.364;7.484;2023-04-28T03:33:49;10.60;99.90
19220;DHT22;9744;49.364;7.484;2023-04-28T03:36:16;10.60;99.90
19220;DHT22;9744;49.364;7.484;2023-04-28T03:38:44;10.70;99.90
19220;DHT22;9744;49.364;7.484;2023-04-28T03:41:11;10.70;99.90
19220;DHT22;9744;49.364;7.484;2023-04-28T03:44:18;10.70;99.90
19220;DHT22;9744;49.364;7.484;2023-04-28T03:46:48;10.80;99.90
19220;DHT22;9744;49.364;7.484;2023-04-28T03:49:15;10.80;99.90
19220;DHT22;9744;49.364;7.484;2023-04-28T03:51:42;10.70;99.90
19220;DHT22;9744;49.364;7.484;2023-04-28T03:54:10;10.70;99.90
19220;DHT22;9744;49.364;7.484;2023-04-28T03:56:37;10.70;99.90
19220;DHT22;9744;49.364;7.484;2023-04-28T03:59:05;10.70;99.90
19220;DHT22;9744;49.364;7.484;2023-04-28T04:01:33;10.70;99.90
19220;DHT22;9744;49.364;7.484;2023-04-28T04:04:01;10.80;99.90
19220;DHT22;9744;49.364;7.484;2023-04-28T04:06:28;10.70;99.90
19220;DHT22;9744;49.364;7.484;2023-04-28T04:08:56;10.60;99.90
19220;DHT22;9744;49.364;7.484;2023-04-28T04:11:23;10.60;99.90
19220;DHT22;9744;49.364;7.484;2023-04-28T04:13:51;10.60;99.90
19220;DHT22;9744;49.364;7.484;2023-04-28T04:16:20;10.60;99.90
19220;DHT22;9744;49.364;7.484;2023-04-28T04:18:49;10.50;99.90
19220;DHT22;9744;49.364;7.484;2023-04-28T04:21:22;10.50;99.90
19220;DHT22;9744;49.364;7.484;2023-04-28T04:23:51;10.50;99.90
19220;DHT22;9744;49.364;7.484;2023-04-28T04:26:20;10.50;99.90
19220;DHT22;9744;49.364;7.484;2023-04-28T04:28:49;10.50;99.90
19220;DHT22;9744;49.364;7.484;2023-04-28T04:31:16;10.40;99.90
19220;DHT22;9744;49.364;7.484;2023-04-28T04:33:45;10.40;99.90
19220;DHT22;9744;49.364;7.484;2023-04-28T04:36:14;10.30;99.90
19220;DHT22;9744;49.364;7.484;2023-04-28T04:38:41;10.30;99.90
19220;DHT22;9744;49.364;7.484;2023-04-28T04:41:16;10.30;99.90
19220;DHT22;9744;49.364;7.484;2023-04-28T04:43:51;10.30;99.90
19220;DHT22;9744;49.364;7.484;2023-04-28T04:46:19;10.20;99.90
19220;DHT22;9744;49.364;7.484;2023-04-28T04:48:46;10.20;99.90
19220;DHT22;9744;49.364;7.484;2023-04-28T04:51:15;10.20;99.90
19220;DHT22;9744;49.364;7.484;2023-04-28T04:53:43;10.20;99.90
19220;DHT22;9744;49.364;7.484;2023-04-28T04:56:10;10.20;99.90
19220;DHT22;9744;49.364;7.484;2023-04-28T04:58:38;10.20;99.90
19220;DHT22;9744;49.364;7.484;2023-04-28T05:01:37;10.20;99.90
19220;DHT22;9744;49.364;7.484;2023-04-28T05:04:05;10.20;99.90
19220;DHT22;9744;49.364;7.484;2023-04-28T05:06:34;10.20;99.90
19220;DHT22;9744;49.364;7.484;2023-04-28T05:09:01;10.20;99.90
19220;DHT22;9744;49.364;7.484;2023-04-28T05:11:29;10.20;99.90
19220;DHT22;9744;49.364;7.484;2023-04-28T05:13:56;10.20;99.90
19220;DHT22;9744;49.364;7.484;2023-04-28T05:16:24;10.20;99.90
19220;DHT22;9744;49.364;7.484;2023-04-28T05:19:10;10.30;99.90
19220;DHT22;9744;49.364;7.484;2023-04-28T05:21:38;10.30;99.90
19220;DHT22;9744;49.364;7.484;2023-04-28T05:24:06;10.30;99.90
19220;DHT22;9744;49.364;7.484;2023-04-28T05:26:35;10.30;99.90
19220;DHT22;9744;49.364;7.484;2023-04-28T05:29:07;10.30;99.90
19220;DHT22;9744;49.364;7.484;2023-04-28T05:31:34;10.30;99.90
19220;DHT22;9744;49.364;7.484;2023-04-28T05:34:02;10.40;99.90
19220;DHT22;9744;49.364;7.484;2023-04-28T05:36:29;10.40;99.90
19220;DHT22;9744;49.364;7.484;2023-04-28T05:38:58;10.40;99.90
19220;DHT22;9744;49.364;7.484;2023-04-28T05:41:26;10.40;99.90
19220;DHT22;9744;49.364;7.484;2023-04-28T05:43:54;10.40;99.90
19220;DHT22;9744;49.364;7.484;2023-04-28T05:46:22;10.40;99.90
19220;DHT22;9744;49.364;7.484;2023-04-28T05:48:49;10.40;99.90
19220;DHT22;9744;49.364;7.484;2023-04-28T05:51:17;10.40;99.90
19220;DHT22;9744;49.364;7.484;2023-04-28T05:53:44;10.40;99.90
19220;DHT22;9744;49.364;7.484;2023-04-28T05:56:16;10.40;99.90
19220;DHT22;9744;49.364;7.484;2023-04-28T05:58:43;10.40;99.90
19220;DHT22;9744;49.364;7.484;2023-04-28T06:01:11;10.50;99.90
19220;DHT22;9744;49.364;7.484;2023-04-28T06:03:38;10.40;99.90
19220;DHT22;9744;49.364;7.484;2023-04-28T06:06:07;10.50;99.90
19220;DHT22;9744;49.364;7.484;2023-04-28T06:08:34;10.60;99.90
19220;DHT22;9744;49.364;7.484;2023-04-28T06:11:04;10.60;99.90
19220;DHT22;9744;49.364;7.484;2023-04-28T06:13:32;10.60;99.90
19220;DHT22;9744;49.364;7.484;2023-04-28T06:16:02;10.60;99.90
19220;DHT22;9744;49.364;7.484;2023-04-28T06:18:29;10.70;99.90
19220;DHT22;9744;49.364;7.484;2023-04-28T06:21:00;10.70;99.90
19220;DHT22;9744;49.364;7.484;2023-04-28T06:23:27;10.70;99.90
19220;DHT22;9744;49.364;7.484;2023-04-28T06:25:54;10.70;99.90
19220;DHT22;9744;49.364;7.484;2023-04-28T06:28:22;10.70;99.90
19220;DHT22;9744;49.364;7.484;2023-04-28T06:30:53;10.80;99.90
19220;DHT22;9744;49.364;7.484;2023-04-28T06:33:20;10.80;99.90
19220;DHT22;9744;49.364;7.484;2023-04-28T06:35:48;10.90;99.90
19220;DHT22;9744;49.364;7.484;2023-04-28T06:38:15;10.90;99.90
19220;DHT22;9744;49.364;7.484;2023-04-28T06:40:42;11.00;99.90
19220;DHT22;9744;49.364;7.484;2023-04-28T06:43:10;11.00;99.90
19220;DHT22;9744;49.364;7.484;2023-04-28T06:45:50;11.10;99.90
19220;DHT22;9744;49.364;7.484;2023-04-28T06:48:18;11.20;99.90
19220;DHT22;9744;49.364;7.484;2023-04-28T06:50:46;11.30;99.90
19220;DHT22;9744;49.364;7.484;2023-04-28T06:53:13;11.40;99.90
19220;DHT22;9744;49.364;7.484;2023-04-28T06:55:41;11.40;99.90
19220;DHT22;9744;49.364;7.484;2023-04-28T06:58:09;11.60;99.90
19220;DHT22;9744;49.364;7.484;2023-04-28T07:00:37;11.80;99.90
19220;DHT22;9744;49.364;7.484;2023-04-28T07:03:04;11.90;99.90
19220;DHT22;9744;49.364;7.484;2023-04-28T07:05:33;11.90;99.90
19220;DHT22;9744;49.364;7.484;2023-04-28T07:08:01;11.80;99.90
19220;DHT22;9744;49.364;7.484;2023-04-28T07:10:28;11.60;99.90
19220;DHT22;9744;49.364;7.484;2023-04-28T07:12:55;11.50;99.90
19220;DHT22;9744;49.364;7.484;2023-04-28T07:15:24;11.50;99.90
19220;DHT22;9744;49.364;7.484;2023-04-28T07:17:51;11.40;99.90
19220;DHT22;9744;49.364;7.484;2023-04-28T07:20:18;11.40;99.90
19220;DHT22;9744;49.364;7.484;2023-04-28T07:22:47;11.40;99.90
19220;DHT22;9744;49.364;7.484;2023-04-28T07:25:14;11.40;99.90
19220;DHT22;9744;49.364;7.484;2023-04-28T07:27:42;11.40;99.90
19220;DHT22;9744;49.364;7.484;2023-04-28T07:30:09;11.40;99.90
19220;DHT22;9744;49.364;7.484;2023-04-28T07:32:38;11.40;99.90
19220;DHT22;9744;49.364;7.484;2023-04-28T07:35:05;11.50;99.90
19220;DHT22;9744;49.364;7.484;2023-04-28T07:37:33;11.50;99.90
19220;DHT22;9744;49.364;7.484;2023-04-28T07:40:02;11.50;99.90
19220;DHT22;9744;49.364;7.484;2023-04-28T07:42:30;11.50;99.90
19220;DHT22;9744;49.364;7.484;2023-04-28T07:44:59;11.60;99.90
19220;DHT22;9744;49.364;7.484;2023-04-28T07:47:26;11.60;99.90
19220;DHT22;9744;49.364;7.484;2023-04-28T07:49:54;11.60;99.90
19220;DHT22;9744;49.364;7.484;2023-04-28T07:52:21;11.60;99.90
19220;DHT22;9744;49.364;7.484;2023-04-28T07:54:48;11.70;99.90
19220;DHT22;9744;49.364;7.484;2023-04-28T07:57:17;11.70;99.90
19220;DHT22;9744;49.364;7.484;2023-04-28T08:00:07;11.80;99.90
19220;DHT22;9744;49.364;7.484;2023-04-28T08:02:39;11.90;99.90
19220;DHT22;9744;49.364;7.484;2023-04-28T08:05:08;11.90;99.90
19220;DHT22;9744;49.364;7.484;2023-04-28T08:07:36;11.90;99.90
19220;DHT22;9744;49.364;7.484;2023-04-28T08:10:33;12.00;99.90
19220;DHT22;9744;49.364;7.484;2023-04-28T08:13:02;12.10;99.90
19220;DHT22;9744;49.364;7.484;2023-04-28T08:15:29;12.10;99.90
19220;DHT22;9744;49.364;7.484;2023-04-28T08:17:56;12.20;99.90
19220;DHT22;9744;49.364;7.484;2023-04-28T08:20:27;12.20;99.90
19220;DHT22;9744;49.364;7.484;2023-04-28T08:22:55;12.30;99.90
19220;DHT22;9744;49.364;7.484;2023-04-28T08:25:22;12.30;99.90
19220;DHT22;9744;49.364;7.484;2023-04-28T08:27:49;12.40;99.90
19220;DHT22;9744;49.364;7.484;2023-04-28T08:30:49;12.40;99.90
19220;DHT22;9744;49.364;7.484;2023-04-28T08:33:17;12.50;99.90
19220;DHT22;9744;49.364;7.484;2023-04-28T08:35:44;12.60;99.90
19220;DHT22;9744;49.364;7.484;2023-04-28T08:38:12;12.60;99.90
19220;DHT22;9744;49.364;7.484;2023-04-28T08:40:40;12.70;99.90
19220;DHT22;9744;49.364;7.484;2023-04-28T08:43:07;12.70;99.90
19220;DHT22;9744;49.364;7.484;2023-04-28T08:45:41;12.80;99.90
19220;DHT22;9744;49.364;7.484;2023-04-28T08:48:16;12.80;99.90
19220;DHT22;9744;49.364;7.484;2023-04-28T08:50:50;12.90;99.90
19220;DHT22;9744;49.364;7.484;2023-04-28T08:53:26;12.90;99.90
19220;DHT22;9744;49.364;7.484;2023-04-28T08:55:54;12.90;99.90
19220;DHT22;9744;49.364;7.484;2023-04-28T08:58:23;13.00;99.90
19220;DHT22;9744;49.364;7.484;2023-04-28T09:00:50;13.10;99.90
19220;DHT22;9744;49.364;7.484;2023-04-28T09:03:19;13.10;99.90
19220;DHT22;9744;49.364;7.484;2023-04-28T09:05:47;13.10;99.90
19220;DHT22;9744;49.364;7.484;2023-04-28T09:08:14;13.10;99.90
19220;DHT22;9744;49.364;7.484;2023-04-28T09:10:43;13.20;99.90
19220;DHT22;9744;49.364;7.484;2023-04-28T09:13:23;13.30;99.90
19220;DHT22;9744;49.364;7.484;2023-04-28T09:15:58;13.30;99.90
19220;DHT22;9744;49.364;7.484;2023-04-28T09:18:27;13.40;99.90
19220;DHT22;9744;49.364;7.484;2023-04-28T09:21:05;13.40;99.90
19220;DHT22;9744;49.364;7.484;2023-04-28T09:23:33;13.40;99.90
19220;DHT22;9744;49.364;7.484;2023-04-28T09:26:02;13.40;99.90
19220;DHT22;9744;49.364;7.484;2023-04-28T09:28:29;13.40;99.90
19220;DHT22;9744;49.364;7.484;2023-04-28T09:30:57;13.40;99.90
19220;DHT22;9744;49.364;7.484;2023-04-28T09:33:24;13.40;99.90
19220;DHT22;9744;49.364;7.484;2023-04-28T09:35:53;13.40;99.90
19220;DHT22;9744;49.364;7.484;2023-04-28T09:38:21;13.40;99.90
19220;DHT22;9744;49.364;7.484;2023-04-28T09:40:51;13.40;99.90
19220;DHT22;9744;49.364;7.484;2023-04-28T09:43:29;13.40;99.90
19220;DHT22;9744;49.364;7.484;2023-04-28T09:45:58;13.40;99.90
19220;DHT22;9744;49.364;7.484;2023-04-28T09:48:31;13.40;99.90
19220;DHT22;9744;49.364;7.484;2023-04-28T09:51:02;13.40;99.90
19220;DHT22;9744;49.364;7.484;2023-04-28T09:53:32;13.40;99.90
19220;DHT22;9744;49.364;7.484;2023-04-28T09:56:03;13.40;99.90
19220;DHT22;9744;49.364;7.484;2023-04-28T09:58:33;13.50;99.90
19220;DHT22;9744;49.364;7.484;2023-04-28T10:01:01;13.60;99.90
19220;DHT22;9744;49.364;7.484;2023-04-28T10:03:29;13.60;99.90
19220;DHT22;9744;49.364;7.484;2023-04-28T10:05:57;13.70;99.90
19220;DHT22;9744;49.364;7.484;2023-04-28T10:08:26;13.70;99.90
19220;DHT22;9744;49.364;7.484;2023-04-28T10:10:54;13.70;99.90
19220;DHT22;9744;49.364;7.484;2023-04-28T10:13:23;13.70;99.90
19220;DHT22;9744;49.364;7.484;2023-04-28T10:15:50;13.70;99.90
19220;DHT22;9744;49.364;7.484;2023-04-28T10:18:21;13.80;99.90
19220;DHT22;9744;49.364;7.484;2023-04-28T10:20:52;13.90;99.90
19220;DHT22;9744;49.364;7.484;2023-04-28T10:27:01;14.20;99.90
19220;DHT22;9744;49.364;7.484;2023-04-28T10:29:30;14.30;99.90
19220;DHT22;9744;49.364;7.484;2023-04-28T10:32:20;14.40;99.90
19220;DHT22;9744;49.364;7.484;2023-04-28T10:34:48;14.40;99.90
19220;DHT22;9744;49.364;7.484;2023-04-28T10:37:16;14.40;99.90
19220;DHT22;9744;49.364;7.484;2023-04-28T10:42:53;14.40;99.90
19220;DHT22;9744;49.364;7.484;2023-04-28T10:45:58;14.30;99.90
19220;DHT22;9744;49.364;7.484;2023-04-28T10:48:53;14.30;99.90
19220;DHT22;9744;49.364;7.484;2023-04-28T10:51:28;14.40;99.90
19220;DHT22;9744;49.364;7.484;2023-04-28T10:54:17;14.40;99.90
19220;DHT22;9744;49.364;7.484;2023-04-28T10:57:19;14.30;99.90
19220;DHT22;9744;49.364;7.484;2023-04-28T10:59:49;14.30;99.90
19220;DHT22;9744;49.364;7.484;2023-04-28T11:02:39;14.30;99.90
19220;DHT22;9744;49.364;7.484;2023-04-28T11:05:14;14.40;99.90
19220;DHT22;9744;49.364;7.484;2023-04-28T11:11:13;14.40;99.90
19220;DHT22;9744;49.364;7.484;2023-04-28T11:13:41;14.40;99.90
19220;DHT22;9744;49.364;7.484;2023-04-28T11:16:15;14.40;99.90
19220;DHT22;9744;49.364;7.484;2023-04-28T11:18:54;14.40;99.90
19220;DHT22;9744;49.364;7.484;2023-04-28T11:21:22;14.40;99.90
19220;DHT22;9744;49.364;7.484;2023-04-28T11:23:50;14.40;99.90
19220;DHT22;9744;49.364;7.484;2023-04-28T11:26:18;14.40;99.90
19220;DHT22;9744;49.364;7.484;2023-04-28T11:28:47;14.40;99.90
19220;DHT22;9744;49.364;7.484;2023-04-28T11:31:16;14.40;99.90
19220;DHT22;9744;49.364;7.484;2023-04-28T11:33:53;14.40;99.90
19220;DHT22;9744;49.364;7.484;2023-04-28T11:36:23;14.40;99.90
19220;DHT22;9744;49.364;7.484;2023-04-28T11:38:51;14.50;99.90
19220;DHT22;9744;49.364;7.484;2023-04-28T11:41:18;14.50;99.90
19220;DHT22;9744;49.364;7.484;2023-04-28T11:43:45;14.70;99.90
19220;DHT22;9744;49.364;7.484;2023-04-28T11:46:17;14.90;99.90
19220;DHT22;9744;49.364;7.484;2023-04-28T11:48:45;15.10;99.90
19220;DHT22;9744;49.364;7.484;2023-04-28T11:51:43;15.10;99.90
19220;DHT22;9744;49.364;7.484;2023-04-28T11:54:13;15.30;99.90
19220;DHT22;9744;49.364;7.484;2023-04-28T11:56:41;15.30;99.90
19220;DHT22;9744;49.364;7.484;2023-04-28T11:59:10;15.30;99.90
19220;DHT22;9744;49.364;7.484;2023-04-28T12:01:47;15.50;99.90
19220;DHT22;9744;49.364;7.484;2023-04-28T12:04:25;15.60;99.90
19220;DHT22;9744;49.364;7.484;2023-04-28T12:07:04;15.60;99.90
19220;DHT22;9744;49.364;7.484;2023-04-28T12:09:33;15.50;99.90
19220;DHT22;9744;49.364;7.484;2023-04-28T12:12:01;15.40;99.90
19220;DHT22;9744;49.364;7.484;2023-04-28T12:14:30;15.40;99.90
19220;DHT22;9744;49.364;7.484;2023-04-28T12:17:01;15.40;99.90
19220;DHT22;9744;49.364;7.484;2023-04-28T12:19:29;15.40;99.90
19220;DHT22;9744;49.364;7.484;2023-04-28T12:22:03;15.50;99.90
19220;DHT22;9744;49.364;7.484;2023-04-28T12:24:31;15.70;99.90
19220;DHT22;9744;49.364;7.484;2023-04-28T12:27:17;15.90;99.90
19220;DHT22;9744;49.364;7.484;2023-04-28T12:29:46;16.10;99.90
19220;DHT22;9744;49.364;7.484;2023-04-28T12:32:16;16.20;99.90
19220;DHT22;9744;49.364;7.484;2023-04-28T12:34:44;16.30;99.90
19220;DHT22;9744;49.364;7.484;2023-04-28T12:37:12;16.60;99.90
19220;DHT22;9744;49.364;7.484;2023-04-28T12:39:40;16.80;99.90
19220;DHT22;9744;49.364;7.484;2023-04-28T12:42:10;17.00;99.90
19220;DHT22;9744;49.364;7.484;2023-04-28T12:44:37;17.00;99.90
19220;DHT22;9744;49.364;7.484;2023-04-28T12:47:06;16.90;99.90
19220;DHT22;9744;49.364;7.484;2023-04-28T12:49:35;16.90;99.90
19220;DHT22;9744;49.364;7.484;2023-04-28T12:52:04;17.10;99.90
19220;DHT22;9744;49.364;7.484;2023-04-28T12:54:31;17.20;99.90
19220;DHT22;9744;49.364;7.484;2023-04-28T12:56:58;17.30;99.90
19220;DHT22;9744;49.364;7.484;2023-04-28T12:59:26;17.60;99.90
19220;DHT22;9744;49.364;7.484;2023-04-28T13:01:54;17.60;99.90
19220;DHT22;9744;49.364;7.484;2023-04-28T13:04:21;17.70;99.90
19220;DHT22;9744;49.364;7.484;2023-04-28T13:06:51;17.60;99.90
19220;DHT22;9744;49.364;7.484;2023-04-28T13:09:19;17.50;99.90
19220;DHT22;9744;49.364;7.484;2023-04-28T13:11:47;17.20;99.90
19220;DHT22;9744;49.364;7.484;2023-04-28T13:14:14;17.10;99.90
19220;DHT22;9744;49.364;7.484;2023-04-28T13:16:41;16.90;99.90
19220;DHT22;9744;49.364;7.484;2023-04-28T13:19:08;16.70;99.90
19220;DHT22;9744;49.364;7.484;2023-04-28T13:21:38;16.60;99.90
19220;DHT22;9744;49.364;7.484;2023-04-28T13:24:08;16.60;99.90
19220;DHT22;9744;49.364;7.484;2023-04-28T13:26:36;16.50;99.90
19220;DHT22;9744;49.364;7.484;2023-04-28T13:29:03;16.30;99.90
19220;DHT22;9744;49.364;7.484;2023-04-28T13:31:33;16.20;99.90
19220;DHT22;9744;49.364;7.484;2023-04-28T13:34:00;16.20;99.90
19220;DHT22;9744;49.364;7.484;2023-04-28T13:36:29;16.00;99.90
19220;DHT22;9744;49.364;7.484;2023-04-28T13:38:57;16.00;99.90
19220;DHT22;9744;49.364;7.484;2023-04-28T13:41:26;16.00;99.90
19220;DHT22;9744;49.364;7.484;2023-04-28T13:43:53;16.00;99.90
19220;DHT22;9744;49.364;7.484;2023-04-28T13:46:21;16.10;99.90
19220;DHT22;9744;49.364;7.484;2023-04-28T13:48:48;16.10;99.90
19220;DHT22;9744;49.364;7.484;2023-04-28T13:51:16;16.00;99.90
19220;DHT22;9744;49.364;7.484;2023-04-28T13:53:43;16.10;99.90
19220;DHT22;9744;49.364;7.484;2023-04-28T13:56:10;16.20;99.90
19220;DHT22;9744;49.364;7.484;2023-04-28T13:58:39;16.20;99.90
19220;DHT22;9744;49.364;7.484;2023-04-28T14:01:06;16.20;99.90
19220;DHT22;9744;49.364;7.484;2023-04-28T14:03:33;16.20;99.90
19220;DHT22;9744;49.364;7.484;2023-04-28T14:06:02;16.20;99.90
19220;DHT22;9744;49.364;7.484;2023-04-28T14:08:29;16.10;99.90
19220;DHT22;9744;49.364;7.484;2023-04-28T14:10:56;16.00;99.90
19220;DHT22;9744;49.364;7.484;2023-04-28T14:13:23;15.90;99.90
19220;DHT22;9744;49.364;7.484;2023-04-28T14:15:53;15.70;99.90
19220;DHT22;9744;49.364;7.484;2023-04-28T14:18:20;15.80;99.90
19220;DHT22;9744;49.364;7.484;2023-04-28T14:20:47;15.80;99.90
19220;DHT22;9744;49.364;7.484;2023-04-28T14:23:15;16.00;99.90
19220;DHT22;9744;49.364;7.484;2023-04-28T14:25:42;16.20;99.90
19220;DHT22;9744;49.364;7.484;2023-04-28T14:28:09;16.40;99.90
19220;DHT22;9744;49.364;7.484;2023-04-28T14:30:37;16.50;99.90
19220;DHT22;9744;49.364;7.484;2023-04-28T14:33:06;16.50;99.90
19220;DHT22;9744;49.364;7.484;2023-04-28T14:35:33;16.60;99.90
19220;DHT22;9744;49.364;7.484;2023-04-28T14:38:01;16.30;99.90
19220;DHT22;9744;49.364;7.484;2023-04-28T14:40:29;15.90;99.90
19220;DHT22;9744;49.364;7.484;2023-04-28T14:42:57;15.50;99.90
19220;DHT22;9744;49.364;7.484;2023-04-28T14:45:24;15.30;99.90
19220;DHT22;9744;49.364;7.484;2023-04-28T14:47:52;15.30;99.90
19220;DHT22;9744;49.364;7.484;2023-04-28T14:50:20;15.20;99.90
19220;DHT22;9744;49.364;7.484;2023-04-28T14:52:48;15.20;99.90
19220;DHT22;9744;49.364;7.484;2023-04-28T14:55:15;15.20;99.90
19220;DHT22;9744;49.364;7.484;2023-04-28T14:57:42;15.30;99.90
19220;DHT22;9744;49.364;7.484;2023-04-28T15:00:10;15.30;99.90
19220;DHT22;9744;49.364;7.484;2023-04-28T15:02:38;15.40;99.90
19220;DHT22;9744;49.364;7.484;2023-04-28T15:05:06;15.50;99.90
19220;DHT22;9744;49.364;7.484;2023-04-28T15:07:37;15.50;99.90
19220;DHT22;9744;49.364;7.484;2023-04-28T15:10:05;15.80;99.90
19220;DHT22;9744;49.364;7.484;2023-04-28T15:12:33;15.70;99.90
19220;DHT22;9744;49.364;7.484;2023-04-28T15:15:01;15.70;99.90
19220;DHT22;9744;49.364;7.484;2023-04-28T15:17:29;15.70;99.90
19220;DHT22;9744;49.364;7.484;2023-04-28T15:19:56;16.00;99.90
19220;DHT22;9744;49.364;7.484;2023-04-28T15:22:24;16.10;99.90
19220;DHT22;9744;49.364;7.484;2023-04-28T15:24:53;16.20;99.90
19220;DHT22;9744;49.364;7.484;2023-04-28T15:27:20;16.50;99.90
19220;DHT22;9744;49.364;7.484;2023-04-28T15:29:47;16.60;99.90
19220;DHT22;9744;49.364;7.484;2023-04-28T15:32:15;16.90;99.90
19220;DHT22;9744;49.364;7.484;2023-04-28T15:34:42;17.00;99.90
19220;DHT22;9744;49.364;7.484;2023-04-28T15:37:37;17.10;99.90
19220;DHT22;9744;49.364;7.484;2023-04-28T15:40:08;17.30;99.90
19220;DHT22;9744;49.364;7.484;2023-04-28T15:42:36;17.50;99.90
19220;DHT22;9744;49.364;7.484;2023-04-28T15:45:05;17.50;99.90
19220;DHT22;9744;49.364;7.484;2023-04-28T15:47:32;17.60;99.90
19220;DHT22;9744;49.364;7.484;2023-04-28T15:50:00;17.60;99.90
19220;DHT22;9744;49.364;7.484;2023-04-28T15:52:28;17.50;99.90
19220;DHT22;9744;49.364;7.484;2023-04-28T15:54:55;17.50;99.90
19220;DHT22;9744;49.364;7.484;2023-04-28T15:57:24;17.50;99.90
19220;DHT22;9744;49.364;7.484;2023-04-28T15:59:51;17.60;99.90
19220;DHT22;9744;49.364;7.484;2023-04-28T16:02:20;17.70;99.90
19220;DHT22;9744;49.364;7.484;2023-04-28T16:04:47;17.80;99.90
19220;DHT22;9744;49.364;7.484;2023-04-28T16:07:14;17.80;99.90
19220;DHT22;9744;49.364;7.484;2023-04-28T16:09:42;18.00;99.90